createdAt,value
2018-09-04T00:01:07.945Z,18.40
2018-09-04T00:03:40.557Z,18.40
2018-09-04T00:06:12.907Z,18.40
2018-09-04T00:08:45.143Z,18.40
2018-09-04T00:11:17.876Z,18.50
2018-09-04T00:13:50.444Z,18.40
2018-09-04T00:16:23.503Z,18.30
2018-09-04T00:18:56.121Z,18.30
2018-09-04T00:21:28.514Z,18.30
2018-09-04T00:24:02.300Z,18.30
2018-09-04T00:26:34.886Z,18.20
2018-09-04T00:29:07.648Z,18.20
2018-09-04T00:31:39.792Z,18.20
2018-09-04T00:34:12.340Z,18.20
2018-09-04T00:36:45.075Z,18.10
2018-09-04T00:39:16.982Z,18.00
2018-09-04T00:41:48.969Z,18.00
2018-09-04T00:44:21.018Z,18.00
2018-09-04T00:46:53.219Z,18.00
2018-09-04T00:49:25.166Z,18.00
2018-09-04T00:51:57.104Z,17.90
2018-09-04T00:54:29.663Z,17.90
2018-09-04T00:57:02.086Z,17.90
2018-09-04T00:59:34.380Z,17.90
2018-09-04T01:02:06.893Z,17.90
2018-09-04T01:04:39.435Z,17.90
2018-09-04T01:07:11.752Z,17.90
2018-09-04T01:09:43.931Z,17.80
2018-09-04T01:12:16.200Z,17.80
2018-09-04T01:14:48.357Z,17.80
2018-09-04T01:17:20.441Z,17.80
2018-09-04T01:19:52.394Z,17.70
2018-09-04T01:22:24.464Z,17.70
2018-09-04T01:24:56.659Z,17.70
2018-09-04T01:27:28.729Z,17.60
2018-09-04T01:30:00.933Z,17.60
2018-09-04T01:32:33.174Z,17.60
2018-09-04T01:35:05.594Z,17.60
2018-09-04T01:37:38.104Z,17.60
2018-09-04T01:40:10.158Z,17.60
2018-09-04T01:42:42.188Z,17.60
2018-09-04T01:45:14.400Z,17.70
2018-09-04T01:47:47.349Z,17.60
2018-09-04T01:50:19.671Z,17.60
2018-09-04T01:52:51.751Z,17.60
2018-09-04T01:55:23.833Z,17.60
2018-09-04T01:57:55.921Z,17.60
2018-09-04T02:00:28.281Z,17.60
2018-09-04T02:03:00.855Z,17.50
2018-09-04T02:05:33.041Z,17.50
2018-09-04T02:08:05.335Z,17.50
2018-09-04T02:10:37.627Z,17.40
2018-09-04T02:13:11.039Z,17.30
2018-09-04T02:15:43.251Z,17.20
2018-09-04T02:18:15.439Z,17.20
2018-09-04T02:20:47.400Z,17.10
2018-09-04T02:23:19.328Z,17.10
2018-09-04T02:25:51.413Z,17.10
2018-09-04T02:28:23.288Z,17.10
2018-09-04T02:30:55.529Z,17.00
2018-09-04T02:33:27.613Z,17.00
2018-09-04T02:35:59.677Z,17.00
2018-09-04T02:38:33.056Z,17.00
2018-09-04T02:41:05.684Z,17.00
2018-09-04T02:43:37.814Z,16.90
2018-09-04T02:46:10.054Z,16.90
2018-09-04T02:48:42.450Z,16.80
2018-09-04T02:51:14.618Z,16.70
2018-09-04T02:53:47.547Z,16.70
2018-09-04T02:56:20.107Z,16.60
2018-09-04T02:58:52.468Z,16.60
2018-09-04T03:01:24.681Z,16.60
2018-09-04T03:03:56.611Z,16.60
2018-09-04T03:06:29.619Z,16.50
2018-09-04T03:09:01.775Z,16.50
2018-09-04T03:11:34.044Z,16.50
2018-09-04T03:14:06.064Z,16.40
2018-09-04T03:16:38.526Z,16.40
2018-09-04T03:19:11.039Z,16.40
2018-09-04T03:21:43.274Z,16.30
2018-09-04T03:24:15.878Z,16.20
2018-09-04T03:26:49.816Z,16.10
2018-09-04T03:29:22.050Z,16.20
2018-09-04T03:31:54.085Z,16.10
2018-09-04T03:34:26.722Z,16.10
2018-09-04T03:36:59.068Z,16.10
2018-09-04T03:39:31.395Z,16.10
2018-09-04T03:42:03.420Z,16.10
2018-09-04T03:44:36.827Z,16.10
2018-09-04T03:47:09.251Z,16.00
2018-09-04T03:49:41.125Z,16.10
2018-09-04T03:52:13.169Z,16.10
2018-09-04T03:54:45.285Z,16.10
2018-09-04T03:57:17.488Z,16.20
2018-09-04T03:59:50.049Z,16.20
2018-09-04T04:02:24.366Z,16.30
2018-09-04T04:04:57.187Z,16.40
2018-09-04T04:07:29.473Z,16.50
2018-09-04T04:10:02.321Z,16.60
2018-09-04T04:12:34.794Z,16.60
2018-09-04T04:15:07.330Z,16.80
2018-09-04T04:17:39.302Z,16.70
2018-09-04T04:20:11.870Z,16.70
2018-09-04T04:22:44.175Z,16.70
2018-09-04T04:25:16.450Z,16.80
2018-09-04T04:27:48.725Z,16.80
2018-09-04T04:30:20.990Z,16.90
2018-09-04T04:32:53.539Z,17.00
2018-09-04T04:35:26.551Z,17.00
2018-09-04T04:37:58.905Z,17.10
2018-09-04T04:40:31.393Z,17.20
2018-09-04T04:43:04.118Z,17.30
2018-09-04T04:45:36.633Z,17.30
2018-09-04T04:48:09.657Z,17.40
2018-09-04T04:50:43.102Z,17.40
2018-09-04T04:53:15.226Z,17.50
2018-09-04T04:55:47.599Z,17.40
2018-09-04T04:58:20.502Z,17.50
2018-09-04T05:00:52.998Z,17.50
2018-09-04T05:03:26.561Z,17.50
2018-09-04T05:05:58.927Z,17.60
2018-09-04T05:08:30.897Z,17.60
2018-09-04T05:11:04.238Z,17.60
2018-09-04T05:13:36.622Z,17.70
2018-09-04T05:16:09.336Z,17.70
2018-09-04T05:18:41.764Z,17.70
2018-09-04T05:21:14.534Z,17.80
2018-09-04T05:23:47.180Z,17.90
2018-09-04T05:26:19.646Z,17.90
2018-09-04T05:28:52.087Z,18.00
2018-09-04T05:31:24.248Z,18.10
2018-09-04T05:33:56.762Z,18.10
2018-09-04T05:36:30.570Z,18.20
2018-09-04T05:39:03.165Z,18.20
2018-09-04T05:41:35.457Z,18.20
2018-09-04T05:44:07.405Z,18.30
2018-09-04T05:46:44.552Z,18.30
2018-09-04T05:49:19.465Z,18.40
2018-09-04T05:51:52.277Z,18.40
2018-09-04T05:54:24.777Z,18.50
2018-09-04T05:56:57.696Z,18.50
2018-09-04T05:59:30.009Z,18.50
2018-09-04T06:02:03.195Z,18.60
2018-09-04T06:04:35.647Z,18.60
2018-09-04T06:07:08.072Z,18.50
2018-09-04T06:09:40.522Z,18.60
2018-09-04T06:12:12.800Z,18.60
2018-09-04T06:14:45.582Z,18.60
2018-09-04T06:17:17.428Z,18.60
2018-09-04T06:19:49.985Z,18.70
2018-09-04T06:22:22.026Z,18.70
2018-09-04T06:24:55.089Z,18.80
2018-09-04T06:27:27.899Z,18.80
2018-09-04T06:30:00.522Z,18.90
2018-09-04T06:32:33.043Z,19.00
2018-09-04T06:35:05.374Z,19.00
2018-09-04T06:37:37.741Z,19.00
2018-09-04T06:40:10.223Z,19.00
2018-09-04T06:42:42.643Z,19.20
2018-09-04T06:45:14.972Z,19.20
2018-09-04T06:47:49.206Z,19.30
2018-09-04T06:50:21.976Z,19.30
2018-09-04T06:52:53.932Z,19.40
2018-09-04T06:55:26.603Z,19.50
2018-09-04T06:57:59.969Z,19.60
2018-09-04T07:00:32.412Z,19.70
2018-09-04T07:03:04.782Z,19.80
2018-09-04T07:05:37.110Z,19.90
2018-09-04T07:08:09.783Z,20.00
2018-09-04T07:10:42.466Z,20.10
2018-09-04T07:13:14.947Z,20.20
2018-09-04T07:15:47.469Z,20.20
2018-09-04T07:18:20.019Z,20.20
2018-09-04T07:20:52.589Z,20.20
2018-09-04T07:23:25.827Z,20.30
2018-09-04T07:25:58.800Z,20.30
2018-09-04T07:28:30.779Z,20.40
2018-09-04T07:31:03.529Z,20.60
2018-09-04T07:33:36.366Z,20.60
2018-09-04T07:36:09.011Z,20.70
2018-09-04T07:38:41.411Z,20.80
2018-09-04T07:41:14.608Z,21.00
2018-09-04T07:43:47.737Z,21.20
2018-09-04T07:46:20.149Z,21.40
2018-09-04T07:48:52.511Z,21.50
2018-09-04T07:51:25.298Z,21.80
2018-09-04T07:53:57.694Z,22.30
2018-09-04T07:56:30.222Z,22.50
2018-09-04T07:59:03.066Z,22.50
2018-09-04T08:01:35.660Z,22.60
2018-09-04T08:04:08.120Z,22.60
2018-09-04T08:06:40.532Z,22.80
2018-09-04T08:09:13.215Z,23.00
2018-09-04T08:11:45.629Z,23.20
2018-09-04T08:14:18.458Z,23.40
2018-09-04T08:16:51.451Z,23.50
2018-09-04T08:19:24.569Z,23.60
2018-09-04T08:21:57.052Z,23.60
2018-09-04T08:24:29.291Z,23.60
2018-09-04T08:27:01.493Z,23.80
2018-09-04T08:29:34.339Z,24.10
2018-09-04T08:32:06.665Z,24.30
2018-09-04T08:34:38.629Z,24.60
2018-09-04T08:37:11.103Z,24.70
2018-09-04T08:39:43.734Z,24.80
2018-09-04T08:42:16.209Z,24.70
2018-09-04T08:44:51.661Z,24.80
2018-09-04T08:47:24.174Z,24.80
2018-09-04T08:49:57.018Z,24.90
2018-09-04T08:52:29.012Z,24.90
2018-09-04T08:55:01.835Z,25.10
2018-09-04T08:57:34.504Z,25.30
2018-09-04T09:00:07.512Z,25.50
2018-09-04T09:02:40.563Z,25.50
2018-09-04T09:05:13.157Z,25.60
2018-09-04T09:07:45.539Z,25.70
2018-09-04T09:10:18.066Z,25.80
2018-09-04T09:12:51.718Z,25.90
2018-09-04T09:15:24.304Z,26.10
2018-09-04T09:18:12.293Z,26.20
2018-09-04T09:20:46.794Z,26.20
2018-09-04T09:23:19.678Z,26.40
2018-09-04T09:25:51.940Z,26.40
2018-09-04T09:28:24.946Z,26.40
2018-09-04T09:30:57.793Z,26.40
2018-09-04T09:33:30.006Z,26.50
2018-09-04T09:36:01.938Z,26.50
2018-09-04T09:38:34.666Z,26.50
2018-09-04T09:41:07.779Z,26.70
2018-09-04T09:43:40.222Z,26.80
2018-09-04T09:46:12.407Z,26.90
2018-09-04T09:48:44.682Z,27.10
2018-09-04T09:51:17.421Z,27.20
2018-09-04T09:53:50.052Z,27.30
2018-09-04T09:56:23.316Z,27.30
2018-09-04T09:58:57.065Z,27.30
2018-09-04T10:01:37.048Z,27.40
2018-09-04T10:04:10.239Z,27.40
2018-09-04T10:06:42.471Z,27.50
2018-09-04T10:09:15.348Z,27.50
2018-09-04T10:11:48.135Z,27.70
2018-09-04T10:14:21.096Z,27.80
2018-09-04T10:16:53.707Z,27.90
2018-09-04T10:19:25.785Z,27.90
2018-09-04T10:21:58.104Z,27.90
2018-09-04T10:24:30.377Z,27.90
2018-09-04T10:27:02.593Z,27.80
2018-09-04T10:29:35.070Z,27.80
2018-09-04T10:32:07.390Z,27.80
2018-09-04T10:34:39.699Z,27.90
2018-09-04T10:37:11.915Z,28.00
2018-09-04T10:39:49.215Z,28.20
2018-09-04T10:42:26.617Z,28.20
2018-09-04T10:44:58.729Z,28.30
2018-09-04T10:47:30.890Z,28.10
2018-09-04T10:50:03.399Z,28.00
2018-09-04T10:52:36.178Z,27.90
2018-09-04T10:55:08.885Z,27.70
2018-09-04T10:57:41.018Z,27.70
2018-09-04T11:00:14.710Z,27.90
2018-09-04T11:02:46.787Z,28.00
2018-09-04T11:05:19.370Z,28.20
2018-09-04T11:07:51.542Z,28.50
2018-09-04T11:10:23.926Z,28.60
2018-09-04T11:12:56.398Z,28.50
2018-09-04T11:15:29.006Z,28.60
2018-09-04T11:18:01.346Z,28.60
2018-09-04T11:20:33.700Z,28.60
2018-09-04T11:23:06.256Z,28.70
2018-09-04T11:25:39.359Z,28.80
2018-09-04T11:28:12.121Z,28.80
2018-09-04T11:30:44.563Z,28.70
2018-09-04T11:33:17.132Z,28.80
2018-09-04T11:35:49.198Z,28.90
2018-09-04T11:38:22.009Z,29.00
2018-09-04T11:40:54.035Z,29.10
2018-09-04T11:43:26.020Z,29.20
2018-09-04T11:45:58.201Z,29.30
2018-09-04T11:48:30.797Z,29.30
2018-09-04T11:51:03.710Z,29.40
2018-09-04T11:53:36.311Z,29.40
2018-09-04T11:56:08.428Z,29.30
2018-09-04T11:58:41.156Z,29.30
2018-09-04T12:01:15.283Z,29.40
2018-09-04T12:03:48.072Z,29.30
2018-09-04T12:06:20.244Z,29.00
2018-09-04T12:08:52.874Z,28.60
2018-09-04T12:11:25.657Z,28.30
2018-09-04T12:13:58.984Z,28.00
2018-09-04T12:16:31.473Z,28.20
2018-09-04T12:19:04.388Z,28.40
2018-09-04T12:21:37.370Z,28.60
2018-09-04T12:24:10.083Z,28.80
2018-09-04T12:26:42.601Z,28.80
2018-09-04T12:29:15.221Z,28.80
2018-09-04T12:31:47.736Z,28.90
2018-09-04T12:34:20.390Z,28.90
2018-09-04T12:36:52.820Z,28.90
2018-09-04T12:39:25.269Z,28.90
2018-09-04T12:41:57.796Z,29.10
2018-09-04T12:44:30.704Z,29.10
2018-09-04T12:47:03.330Z,28.90
2018-09-04T12:49:35.684Z,28.80
2018-09-04T12:52:08.174Z,28.80
2018-09-04T12:54:41.913Z,28.80
2018-09-04T12:57:14.502Z,28.70
2018-09-04T12:59:47.039Z,28.40
2018-09-04T13:02:19.198Z,28.20
2018-09-04T13:04:52.364Z,28.00
2018-09-04T13:07:24.917Z,28.10
2018-09-04T13:09:57.798Z,28.30
2018-09-04T13:12:30.203Z,28.30
2018-09-04T13:15:02.552Z,28.30
2018-09-04T13:17:35.102Z,28.40
2018-09-04T13:20:08.632Z,28.40
2018-09-04T13:22:42.180Z,28.30
2018-09-04T13:25:13.964Z,28.20
2018-09-04T13:27:45.943Z,28.40
2018-09-04T13:30:17.966Z,28.50
2018-09-04T13:32:50.873Z,28.60
2018-09-04T13:35:23.064Z,28.60
2018-09-04T13:37:55.213Z,28.70
2018-09-04T13:40:27.723Z,28.70
2018-09-04T13:42:59.661Z,28.70
2018-09-04T13:45:31.839Z,28.70
2018-09-04T13:48:04.588Z,28.60
2018-09-04T13:50:37.147Z,28.40
2018-09-04T13:53:09.380Z,28.20
2018-09-04T13:55:41.944Z,28.00
2018-09-04T13:58:14.121Z,27.80
2018-09-04T14:00:46.313Z,27.80
2018-09-04T14:03:18.661Z,28.00
2018-09-04T14:05:50.958Z,28.20
2018-09-04T14:08:23.917Z,28.30
2018-09-04T14:10:56.336Z,28.30
2018-09-04T14:13:28.850Z,28.50
2018-09-04T14:16:03.588Z,28.60
2018-09-04T14:18:35.735Z,28.80
2018-09-04T14:21:08.093Z,28.80
2018-09-04T14:23:40.594Z,28.90
2018-09-04T14:26:12.636Z,28.80
2018-09-04T14:28:44.775Z,28.70
2018-09-04T14:31:16.976Z,28.50
2018-09-04T14:33:49.113Z,28.20
2018-09-04T14:36:21.215Z,27.90
2018-09-04T14:38:53.244Z,27.70
2018-09-04T14:41:25.968Z,27.50
2018-09-04T14:43:58.468Z,27.30
2018-09-04T14:46:30.736Z,27.30
2018-09-04T14:49:03.944Z,27.40
2018-09-04T14:51:35.937Z,27.40
2018-09-04T14:54:08.156Z,27.40
2018-09-04T14:57:22.435Z,27.30
2018-09-04T14:59:54.746Z,27.30
2018-09-04T15:02:27.436Z,27.30
2018-09-04T15:04:59.601Z,27.30
2018-09-04T15:07:33.437Z,27.30
2018-09-04T15:10:06.773Z,27.20
2018-09-04T15:12:40.289Z,27.10
2018-09-04T15:15:12.814Z,27.00
2018-09-04T15:17:45.305Z,27.00
2018-09-04T15:20:18.573Z,27.10
2018-09-04T15:22:50.976Z,27.10
2018-09-04T15:25:23.684Z,27.10
2018-09-04T15:27:56.169Z,27.10
2018-09-04T15:30:28.726Z,27.10
2018-09-04T15:33:01.168Z,27.10
2018-09-04T15:35:33.180Z,27.10
2018-09-04T15:38:05.913Z,27.10
2018-09-04T15:40:38.407Z,27.00
2018-09-04T15:43:10.888Z,26.90
2018-09-04T15:45:43.402Z,26.90
2018-09-04T15:48:15.420Z,26.90
2018-09-04T15:50:47.918Z,26.80
2018-09-04T15:53:20.054Z,26.80
2018-09-04T15:55:52.906Z,26.80
2018-09-04T15:58:26.211Z,26.70
2018-09-04T16:00:58.626Z,26.60
2018-09-04T16:03:31.454Z,26.60
2018-09-04T16:06:03.829Z,26.50
2018-09-04T16:08:36.286Z,26.30
2018-09-04T16:11:08.675Z,26.20
2018-09-04T16:13:40.743Z,26.00
2018-09-04T16:16:12.930Z,25.90
2018-09-04T16:18:45.136Z,25.80
2018-09-04T16:21:17.297Z,25.60
2018-09-04T16:23:49.374Z,25.50
2018-09-04T16:26:21.737Z,25.40
2018-09-04T16:28:54.388Z,25.20
2018-09-04T16:31:27.101Z,25.00
2018-09-04T16:33:59.276Z,24.80
2018-09-04T16:36:31.419Z,24.70
2018-09-04T16:39:04.058Z,24.50
2018-09-04T16:41:36.259Z,24.30
2018-09-04T16:44:08.299Z,24.20
2018-09-04T16:46:41.227Z,24.00
2018-09-04T16:49:13.656Z,24.00
2018-09-04T16:51:45.768Z,23.80
2018-09-04T16:54:18.170Z,23.60
2018-09-04T16:56:50.554Z,23.50
2018-09-04T16:59:22.824Z,23.40
2018-09-04T17:01:55.684Z,23.30
2018-09-04T17:04:29.353Z,23.20
2018-09-04T17:07:02.416Z,23.00
2018-09-04T17:09:34.367Z,22.90
2018-09-04T17:12:06.859Z,22.80
2018-09-04T17:14:38.997Z,22.70
2018-09-04T17:17:12.102Z,22.50
2018-09-04T17:19:44.068Z,22.40
2018-09-04T17:22:16.074Z,22.20
2018-09-04T17:24:48.390Z,22.00
2018-09-04T17:27:20.384Z,21.80
2018-09-04T17:29:52.775Z,21.60
2018-09-04T17:32:25.239Z,21.40
2018-09-04T17:34:57.711Z,21.20
2018-09-04T17:37:30.109Z,21.10
2018-09-04T17:40:01.640Z,20.80
2018-09-04T17:42:34.185Z,20.60
2018-09-04T17:45:06.267Z,20.50
2018-09-04T17:47:38.388Z,20.40
2018-09-04T17:50:10.677Z,20.30
2018-09-04T17:52:42.537Z,20.10
2018-09-04T17:55:14.189Z,20.00
2018-09-04T17:57:46.500Z,20.00
2018-09-04T18:00:18.945Z,20.00
2018-09-04T18:02:51.335Z,20.00
2018-09-04T18:05:24.237Z,20.00
2018-09-04T18:07:56.308Z,20.10
2018-09-04T18:10:29.883Z,20.10
2018-09-04T18:13:01.895Z,20.00
2018-09-04T18:15:35.251Z,20.10
2018-09-04T18:18:07.594Z,20.10
2018-09-04T18:20:40.808Z,19.90
2018-09-04T18:23:13.001Z,19.90
2018-09-04T18:25:45.130Z,19.90
2018-09-04T18:28:17.529Z,19.90
2018-09-04T18:30:50.360Z,19.90
2018-09-04T18:33:23.011Z,20.00
2018-09-04T18:35:55.273Z,19.90
2018-09-04T18:38:27.980Z,20.00
2018-09-04T18:41:01.040Z,19.90
2018-09-04T18:43:33.880Z,19.80
2018-09-04T18:46:05.980Z,19.80
2018-09-04T18:48:37.778Z,19.70
2018-09-04T18:51:09.935Z,19.70
2018-09-04T18:53:43.091Z,19.70
2018-09-04T18:56:16.369Z,19.70
2018-09-04T18:58:48.717Z,19.70
2018-09-04T19:01:20.958Z,19.60
2018-09-04T19:03:53.388Z,19.60
2018-09-04T19:06:25.791Z,19.50
2018-09-04T19:08:58.048Z,19.50
2018-09-04T19:11:31.107Z,19.50
2018-09-04T19:14:03.532Z,19.40
2018-09-04T19:16:35.923Z,19.50
2018-09-04T19:19:08.318Z,19.50
2018-09-04T19:21:40.768Z,19.50
2018-09-04T19:24:13.952Z,19.40
2018-09-04T19:26:46.341Z,19.40
2018-09-04T19:29:18.952Z,19.40
2018-09-04T19:31:51.510Z,19.40
2018-09-04T19:34:23.762Z,19.50
2018-09-04T19:36:56.216Z,19.50
2018-09-04T19:39:28.608Z,19.40
2018-09-04T19:42:01.170Z,19.30
2018-09-04T19:44:33.276Z,19.30
2018-09-04T19:47:05.265Z,19.30
2018-09-04T19:49:38.159Z,19.20
2018-09-04T19:52:10.366Z,19.30
2018-09-04T19:54:42.780Z,19.30
2018-09-04T19:57:15.166Z,19.30
2018-09-04T19:59:47.418Z,19.20
2018-09-04T20:02:19.598Z,19.30
2018-09-04T20:04:51.898Z,19.20
2018-09-04T20:07:23.996Z,19.20
2018-09-04T20:09:56.120Z,19.20
2018-09-04T20:12:28.455Z,19.20
2018-09-04T20:15:00.487Z,19.40
2018-09-04T20:17:33.482Z,19.40
2018-09-04T20:20:05.667Z,19.50
2018-09-04T20:22:38.312Z,19.50
2018-09-04T20:25:10.562Z,19.50
2018-09-04T20:27:42.842Z,19.50
2018-09-04T20:30:14.933Z,19.50
2018-09-04T20:32:46.944Z,19.40
2018-09-04T20:35:18.939Z,19.30
2018-09-04T20:37:50.929Z,19.30
2018-09-04T20:40:24.303Z,19.20
2018-09-04T20:42:56.574Z,19.00
2018-09-04T20:45:29.018Z,18.90
2018-09-04T20:48:01.234Z,18.80
2018-09-04T20:50:33.896Z,18.60
2018-09-04T20:53:05.787Z,18.60
2018-09-04T20:55:37.730Z,18.50
2018-09-04T20:58:25.818Z,18.50
2018-09-04T21:01:14.728Z,18.40
2018-09-04T21:04:02.951Z,18.30
2018-09-04T21:06:45.061Z,18.20
2018-09-04T21:09:55.613Z,18.20
2018-09-04T21:12:27.944Z,18.10
2018-09-04T21:15:00.580Z,18.00
2018-09-04T21:17:32.842Z,17.90
2018-09-04T21:20:06.599Z,17.90
2018-09-04T21:22:39.475Z,17.90
2018-09-04T21:25:12.678Z,17.80
2018-09-04T21:27:45.956Z,17.80
2018-09-04T21:30:19.603Z,17.90
2018-09-04T21:32:52.622Z,17.90
2018-09-04T21:35:25.788Z,17.90
2018-09-04T21:37:59.451Z,17.90
2018-09-04T21:40:33.594Z,17.90
2018-09-04T21:43:06.483Z,18.00
2018-09-04T21:45:40.112Z,18.00
2018-09-04T21:48:13.197Z,18.10
2018-09-04T21:50:47.177Z,18.10
2018-09-04T21:53:19.900Z,18.20
2018-09-04T21:55:53.690Z,18.20
2018-09-04T21:58:26.461Z,18.30
2018-09-04T22:01:00.017Z,18.40
2018-09-04T22:03:34.916Z,18.30
2018-09-04T22:06:07.213Z,18.30
2018-09-04T22:08:40.472Z,18.30
2018-09-04T22:11:13.950Z,18.30
2018-09-04T22:13:46.590Z,18.40
2018-09-04T22:16:19.920Z,18.40
2018-09-04T22:18:52.481Z,18.50
2018-09-04T22:21:30.126Z,18.50
2018-09-04T22:24:03.631Z,18.50
2018-09-04T22:26:35.761Z,18.50
2018-09-04T22:29:10.214Z,18.40
2018-09-04T22:31:43.320Z,18.40
2018-09-04T22:34:16.305Z,18.40
2018-09-04T22:36:50.389Z,18.40
2018-09-04T22:39:22.977Z,18.40
2018-09-04T22:41:55.467Z,18.40
2018-09-04T22:44:28.249Z,18.40
2018-09-04T22:47:00.577Z,18.40
2018-09-04T22:49:34.784Z,18.40
2018-09-04T22:52:07.869Z,18.30
2018-09-04T22:54:40.468Z,18.20
2018-09-04T22:57:13.413Z,18.20
2018-09-04T22:59:46.047Z,18.10
2018-09-04T23:02:19.022Z,18.10
2018-09-04T23:04:53.240Z,18.00
2018-09-04T23:07:26.229Z,18.00
2018-09-04T23:09:59.579Z,18.00
2018-09-04T23:12:32.166Z,17.90
2018-09-04T23:15:06.256Z,17.90
2018-09-04T23:17:39.095Z,17.80
2018-09-04T23:20:11.747Z,17.80
2018-09-04T23:22:44.490Z,17.80
2018-09-04T23:25:16.910Z,17.70
2018-09-04T23:27:50.079Z,17.80
2018-09-04T23:30:24.091Z,17.80
2018-09-04T23:32:56.828Z,17.80
2018-09-04T23:35:30.493Z,17.80
2018-09-04T23:38:03.319Z,17.80
2018-09-04T23:40:37.493Z,17.80
2018-09-04T23:43:10.084Z,17.80
2018-09-04T23:45:44.050Z,17.80
2018-09-04T23:48:16.673Z,17.80
2018-09-04T23:50:49.492Z,17.80
2018-09-04T23:53:22.497Z,17.80
2018-09-04T23:55:55.625Z,17.80
2018-09-04T23:58:28.493Z,17.70
